Time;durP1;ratioP1;P1;durP2;ratioP2;P2;SDS_P1;SDS_P2;PMS_P1;PMS_P2;Temp;Humidity;BMP_temperature;BMP_pressure;BME280_temperature;BME280_humidity;BME280_pressure;Samples;Min_cycle;Max_cycle;Signal;HPM_P1;HPM_P2
2023/12/19 00:00:59;;;;;;;;;;;;;;;15.21;45.74;101874.66;4977971;28;1057;-54
2023/12/19 00:03:25;;;;;;;;;;;;;;;15.56;45.99;101881.78;4969457;28;881;-57
2023/12/19 00:05:50;;;;;;;;;;;;;;;17.15;42.56;101882.31;4979605;28;1909;-54
2023/12/19 00:08:16;;;;;;;;;;;;;;;15.64;45.64;101878.72;4971873;28;1144;-56
2023/12/19 00:10:42;;;;;;;;;;;;;;;15.32;45.49;101890.00;4974123;28;1104;-57
2023/12/19 00:13:08;;;;;;;;;;;;;;;17.15;42.94;101888.47;4960879;28;1132;-56
2023/12/19 00:15:33;;;;;;;;;;;;;;;15.80;45.02;101889.41;4965889;28;1069;-57
2023/12/19 00:17:59;;;;;;;;;;;;;;;15.52;46.35;101880.19;4969002;28;1180;-58
2023/12/19 00:20:25;;;;;;;;;;;;;;;17.34;42.00;101877.66;4966070;28;1931;-55
2023/12/19 00:22:51;;;;;;;;;;;;;;;15.87;45.11;101877.56;4965722;28;1053;-58
2023/12/19 00:25:16;;;;;;;;;;;;;;;15.37;45.55;101881.81;4962345;28;1906;-56
2023/12/19 00:27:42;;;;;;;;;;;;;;;16.75;43.95;101880.91;4970202;28;870;-58
2023/12/19 00:30:08;;;;;;;;;;;;;;;15.95;45.05;101874.50;4962114;28;1133;-58
2023/12/19 00:32:33;;;;;;;;;;;;;;;15.38;45.27;101871.13;4971286;28;1049;-60
2023/12/19 00:34:59;;;;;;;;;;;;;;;17.04;43.17;101866.94;4972924;28;1026;-59
2023/12/19 00:37:24;;;;;;;;;;;;;;;15.83;44.85;101862.72;4959855;28;1034;-58
2023/12/19 00:39:50;;;;;;;;;;;;;;;15.28;45.48;101859.31;4963772;28;1316;-58
2023/12/19 00:42:15;;;;;;;;;;;;;;;16.28;44.82;101851.59;4960490;28;1037;-56
2023/12/19 00:44:41;;;;;;;;;;;;;;;16.22;44.12;101860.72;4959868;28;1040;-56
2023/12/19 00:47:06;;;;;;;;;;;;;;;15.38;45.91;101862.34;4968009;28;1879;-56
2023/12/19 00:49:32;;;;;;;;;;;;;;;16.28;44.79;101864.88;4977852;28;2220;-54
2023/12/19 00:51:57;;;;;;;;;;;;;;;15.84;44.83;101855.63;4962124;28;895;-58
2023/12/19 00:54:23;;;;;;;;;;;;;;;16.84;43.65;101871.56;4972826;28;1092;-57
2023/12/19 00:56:48;;;;;;;;;;;;;;;17.74;40.95;101866.44;4967391;28;1100;-56
2023/12/19 00:59:14;;;;;;;;;;;;;;;15.98;44.82;101863.75;4965847;28;1108;-57
2023/12/19 01:01:39;;;;;;;;;;;;;;;15.61;45.22;101870.94;4979001;28;1096;-59
2023/12/19 01:04:06;;;;;;;;;;;;;;;15.72;45.71;101862.41;4968962;28;1096;-58
2023/12/19 01:06:31;;;;;;;;;;;;;;;17.04;42.52;101870.47;4978702;28;1907;-55
2023/12/19 01:08:57;;;;;;;;;;;;;;;15.68;45.35;101864.38;4965255;28;1144;-57
2023/12/19 01:11:22;;;;;;;;;;;;;;;15.45;44.86;101866.41;4967136;28;1129;-58
2023/12/19 01:13:48;;;;;;;;;;;;;;;16.83;43.41;101861.91;4966117;28;1127;-59
2023/12/19 01:16:14;;;;;;;;;;;;;;;15.54;45.74;101858.00;4967436;28;854;-58
2023/12/19 01:18:40;;;;;;;;;;;;;;;16.68;43.98;101863.63;4973418;28;1090;-58
2023/12/19 01:21:05;;;;;;;;;;;;;;;16.66;43.21;101861.03;4968231;28;2487;-59
2023/12/19 01:23:31;;;;;;;;;;;;;;;15.60;45.28;101859.44;4964698;28;1235;-58
2023/12/19 01:25:56;;;;;;;;;;;;;;;17.12;42.74;101851.44;4959588;28;1894;-56
2023/12/19 01:28:22;;;;;;;;;;;;;;;16.35;43.86;101854.78;4969102;28;1081;-60
2023/12/19 01:30:47;;;;;;;;;;;;;;;15.59;45.35;101849.78;4967153;28;1157;-58
2023/12/19 01:33:12;;;;;;;;;;;;;;;17.55;41.60;101855.19;4979006;28;962;-55
2023/12/19 01:35:38;;;;;;;;;;;;;;;16.08;44.59;101853.50;4978984;28;1033;-57
2023/12/19 01:38:03;;;;;;;;;;;;;;;15.53;45.27;101852.75;4977494;28;1132;-57
2023/12/19 01:40:31;;;;;;;;;;;;;;;15.32;45.03;101847.59;4962468;28;1320;-55
2023/12/19 01:43:00;;;;;;;;;;;;;;;17.06;43.16;101842.00;4977261;28;1076;-58
2023/12/19 01:45:25;;;;;;;;;;;;;;;16.46;43.88;101836.44;4970990;28;1910;-56
2023/12/19 01:47:51;;;;;;;;;;;;;;;16.34;44.75;101840.63;4972031;28;1251;-56
2023/12/19 01:50:16;;;;;;;;;;;;;;;18.02;40.62;101852.41;4959735;28;1923;-58
2023/12/19 01:52:43;;;;;;;;;;;;;;;16.26;44.08;101846.38;4959624;28;1005;-58
2023/12/19 01:55:09;;;;;;;;;;;;;;;15.71;44.66;101850.09;4966407;28;1187;-59
2023/12/19 01:57:34;;;;;;;;;;;;;;;16.18;44.59;101842.41;4964360;28;1156;-58
2023/12/19 02:00:00;;;;;;;;;;;;;;;15.89;45.05;101842.97;4964681;28;1085;-59
2023/12/19 02:02:25;;;;;;;;;;;;;;;15.40;45.33;101833.94;4976630;28;1549;-55
2023/12/19 02:04:51;;;;;;;;;;;;;;;17.35;42.26;101843.94;4964340;28;952;-58
2023/12/19 02:07:17;;;;;;;;;;;;;;;15.83;45.07;101838.00;4970258;28;1918;-59
2023/12/19 02:09:42;;;;;;;;;;;;;;;15.52;45.61;101838.63;4965475;28;1061;-59
2023/12/19 02:12:08;;;;;;;;;;;;;;;17.04;42.74;101838.56;4977698;28;1184;-57
2023/12/19 02:14:33;;;;;;;;;;;;;;;15.77;44.96;101840.03;4976925;28;1041;-57
2023/12/19 02:16:59;;;;;;;;;;;;;;;15.93;45.82;101833.94;4975540;28;1097;-58
2023/12/19 02:19:25;;;;;;;;;;;;;;;16.48;43.82;101844.31;4977556;28;1002;-57
2023/12/19 02:21:50;;;;;;;;;;;;;;;15.65;45.00;101836.22;4971598;28;2624;-56
2023/12/19 02:24:17;;;;;;;;;;;;;;;15.97;45.27;101834.59;4971383;28;1052;-60
2023/12/19 02:26:42;;;;;;;;;;;;;;;16.38;43.81;101831.53;4971768;28;1906;-58
2023/12/19 02:29:08;;;;;;;;;;;;;;;15.56;45.31;101826.09;4964011;28;977;-60
2023/12/19 02:31:33;;;;;;;;;;;;;;;15.32;44.88;101829.03;4971073;28;1026;-60
2023/12/19 02:33:59;;;;;;;;;;;;;;;16.33;44.75;101835.41;4977388;28;1021;-59
2023/12/19 02:36:24;;;;;;;;;;;;;;;16.82;42.87;101830.94;4977732;28;1072;-60
2023/12/19 02:38:50;;;;;;;;;;;;;;;15.65;45.32;101830.03;4971430;28;1173;-57
2023/12/19 02:41:15;;;;;;;;;;;;;;;15.38;45.40;101835.84;4972169;28;923;-58
2023/12/19 02:43:41;;;;;;;;;;;;;;;15.85;45.47;101822.84;4975709;28;1111;-59
2023/12/19 02:46:06;;;;;;;;;;;;;;;16.23;44.15;101824.44;4964822;28;1906;-59
2023/12/19 02:48:32;;;;;;;;;;;;;;;15.36;45.56;101817.34;4971003;28;1065;-58
2023/12/19 02:50:58;;;;;;;;;;;;;;;16.67;44.12;101822.03;4958552;28;2390;-59
2023/12/19 02:53:23;;;;;;;;;;;;;;;16.38;43.72;101826.22;4965752;28;1181;-58
2023/12/19 02:55:49;;;;;;;;;;;;;;;15.51;45.31;101826.31;4970039;28;1117;-59
2023/12/19 02:58:14;;;;;;;;;;;;;;;16.71;43.83;101827.09;4976252;28;1092;-60
2023/12/19 03:00:40;;;;;;;;;;;;;;;16.46;43.87;101828.47;4977274;28;1009;-59
2023/12/19 03:03:05;;;;;;;;;;;;;;;15.55;45.38;101816.41;4976948;28;1073;-58
2023/12/19 03:05:32;;;;;;;;;;;;;;;16.16;45.16;101823.91;4973923;28;1903;-59
2023/12/19 03:07:57;;;;;;;;;;;;;;;16.65;43.68;101827.44;4970641;28;1081;-58
2023/12/19 03:10:23;;;;;;;;;;;;;;;15.65;45.17;101825.59;4957958;28;1093;-60
2023/12/19 03:12:48;;;;;;;;;;;;;;;15.38;45.12;101822.59;4974929;28;1093;-59
2023/12/19 03:15:14;;;;;;;;;;;;;;;16.93;43.33;101822.38;4976504;28;1068;-58
2023/12/19 03:17:39;;;;;;;;;;;;;;;15.85;44.83;101821.03;4968785;28;1239;-60
2023/12/19 03:20:06;;;;;;;;;;;;;;;15.45;45.57;101839.03;4957538;28;2242;-55
2023/12/19 03:22:31;;;;;;;;;;;;;;;17.18;42.56;101842.25;4975227;28;1101;-57
2023/12/19 03:24:57;;;;;;;;;;;;;;;15.80;45.06;101833.69;4965502;28;1112;-58
2023/12/19 03:27:22;;;;;;;;;;;;;;;15.99;45.26;101827.44;4974533;28;1890;-57
2023/12/19 03:29:48;;;;;;;;;;;;;;;16.88;42.71;101833.28;4961167;28;928;-59
2023/12/19 03:32:13;;;;;;;;;;;;;;;15.64;44.95;101829.19;4969871;28;1041;-58
2023/12/19 03:34:39;;;;;;;;;;;;;;;15.27;45.22;101820.44;4968599;28;1069;-55
2023/12/19 03:37:04;;;;;;;;;;;;;;;16.12;45.02;101815.25;4971455;28;1060;-59
2023/12/19 03:39:30;;;;;;;;;;;;;;;16.22;44.23;101814.72;4969318;28;1109;-60
2023/12/19 03:41:55;;;;;;;;;;;;;;;15.66;45.78;101813.19;4960981;28;1084;-58
2023/12/19 03:44:21;;;;;;;;;;;;;;;17.75;41.30;101803.41;4969301;28;1153;-57
2023/12/19 03:46:46;;;;;;;;;;;;;;;16.11;44.45;101794.09;4976137;28;1906;-57
2023/12/19 03:49:13;;;;;;;;;;;;;;;15.54;44.88;101799.66;4964768;28;1141;-59
2023/12/19 03:51:38;;;;;;;;;;;;;;;15.35;44.91;101785.63;4962359;28;2309;-59
2023/12/19 03:54:04;;;;;;;;;;;;;;;16.82;43.56;101805.22;4960503;28;1034;-60
2023/12/19 03:56:30;;;;;;;;;;;;;;;15.52;45.17;101798.84;4969886;28;1124;-57
2023/12/19 03:58:55;;;;;;;;;;;;;;;16.13;45.04;101797.53;4969048;28;1105;-57
2023/12/19 04:01:23;;;;;;;;;;;;;;;16.44;43.75;101792.31;4976469;28;1112;-59
2023/12/19 04:03:49;;;;;;;;;;;;;;;15.82;45.76;101796.47;4976650;28;1009;-59
2023/12/19 04:06:14;;;;;;;;;;;;;;;17.90;41.07;101803.44;4959590;28;1902;-59
2023/12/19 04:08:39;;;;;;;;;;;;;;;16.15;44.51;101804.44;4956998;28;1061;-59
2023/12/19 04:11:05;;;;;;;;;;;;;;;15.66;45.05;101795.47;4975416;28;1252;-59
2023/12/19 04:13:30;;;;;;;;;;;;;;;15.34;44.92;101802.44;4964366;28;1089;-55
2023/12/19 04:15:56;;;;;;;;;;;;;;;15.25;44.77;101806.41;4962809;28;1109;-56
2023/12/19 04:18:21;;;;;;;;;;;;;;;16.13;44.21;101810.81;4959165;28;935;-55
2023/12/19 04:20:47;;;;;;;;;;;;;;;15.29;45.61;101818.59;4957044;28;2431;-55
2023/12/19 04:23:13;;;;;;;;;;;;;;;17.40;42.16;101811.75;4965310;28;1124;-56
2023/12/19 04:25:38;;;;;;;;;;;;;;;16.41;43.75;101819.91;4973484;28;1985;-56
2023/12/19 04:28:04;;;;;;;;;;;;;;;15.59;45.00;101807.34;4972311;28;1064;-54
2023/12/19 04:30:29;;;;;;;;;;;;;;;15.34;45.11;101810.41;4961730;28;1029;-56
2023/12/19 04:32:55;;;;;;;;;;;;;;;17.15;42.45;101813.19;4960246;28;1124;-58
2023/12/19 04:35:20;;;;;;;;;;;;;;;15.78;45.15;101814.38;4972678;28;1070;-55
2023/12/19 04:37:46;;;;;;;;;;;;;;;17.14;42.84;101825.63;4960523;28;1119;-57
2023/12/19 04:40:12;;;;;;;;;;;;;;;16.63;43.12;101827.53;4977023;28;1074;-58
2023/12/19 04:42:38;;;;;;;;;;;;;;;15.73;45.05;101827.84;4972852;28;1002;-55
2023/12/19 04:45:03;;;;;;;;;;;;;;;15.47;44.82;101837.16;4962325;28;1125;-53
2023/12/19 04:47:29;;;;;;;;;;;;;;;15.77;45.24;101833.84;4971030;28;1981;-56
2023/12/19 04:49:54;;;;;;;;;;;;;;;16.59;44.08;101833.09;4975432;28;1907;-52
2023/12/19 04:52:20;;;;;;;;;;;;;;;15.53;45.37;101832.38;4970953;28;1069;-61
2023/12/19 04:54:46;;;;;;;;;;;;;;;16.49;44.93;101838.06;4956310;28;1214;-53
2023/12/19 04:57:11;;;;;;;;;;;;;;;17.16;42.49;101846.78;4960949;28;1074;-59
2023/12/19 04:59:37;;;;;;;;;;;;;;;15.84;45.12;101840.56;4955164;28;1396;-59
2023/12/19 05:02:02;;;;;;;;;;;;;;;15.48;45.26;101852.97;4957912;28;1353;-60
2023/12/19 05:04:28;;;;;;;;;;;;;;;15.32;45.16;101846.72;4951700;28;1217;-61
2023/12/19 05:06:53;;;;;;;;;;;;;;;16.70;43.76;101846.63;4952884;28;1911;-58
2023/12/19 05:09:20;;;;;;;;;;;;;;;15.48;45.83;101841.53;4976652;28;1057;-56
2023/12/19 05:11:45;;;;;;;;;;;;;;;16.92;43.60;101844.56;4967504;28;1036;-58
2023/12/19 05:14:11;;;;;;;;;;;;;;;16.35;44.18;101844.97;4977561;28;895;-61
2023/12/19 05:16:37;;;;;;;;;;;;;;;15.58;45.37;101849.88;4970050;28;906;-61
2023/12/19 05:19:04;;;;;;;;;;;;;;;15.39;45.00;101840.19;4964292;28;1195;-62
2023/12/19 05:21:32;;;;;;;;;;;;;;;15.12;45.15;101838.84;4958126;28;2389;-61
2023/12/19 05:23:57;;;;;;;;;;;;;;;17.14;43.05;101854.88;4941645;29;1453;-60
2023/12/19 05:26:23;;;;;;;;;;;;;;;15.70;45.43;101848.41;4968926;28;1922;-61
2023/12/19 05:28:48;;;;;;;;;;;;;;;16.19;44.50;101841.44;4965395;28;1429;-60
2023/12/19 05:31:16;;;;;;;;;;;;;;;16.02;45.02;101843.22;4970196;28;974;-59
2023/12/19 05:33:42;;;;;;;;;;;;;;;15.82;45.12;101846.88;4977607;28;1049;-55
2023/12/19 05:36:07;;;;;;;;;;;;;;;17.11;42.23;101847.94;4958066;29;1387;-60
2023/12/19 05:38:33;;;;;;;;;;;;;;;16.92;42.27;101857.84;4974867;28;1527;-61
2023/12/19 05:40:58;;;;;;;;;;;;;;;16.22;43.87;101858.06;4963779;28;1289;-53
2023/12/19 05:43:24;;;;;;;;;;;;;;;16.13;44.17;101863.88;4959464;28;1129;-60
2023/12/19 05:45:50;;;;;;;;;;;;;;;17.54;41.21;101872.09;4959522;28;1918;-63
2023/12/19 05:48:15;;;;;;;;;;;;;;;16.60;43.01;101864.06;4971849;28;1130;-52
2023/12/19 05:50:41;;;;;;;;;;;;;;;16.15;43.80;101857.53;4961103;28;2294;-60
2023/12/19 05:53:06;;;;;;;;;;;;;;;16.36;43.89;101853.81;4955103;28;1148;-59
2023/12/19 05:55:32;;;;;;;;;;;;;;;17.65;40.92;101852.84;4965055;28;1181;-59
2023/12/19 05:57:57;;;;;;;;;;;;;;;16.75;42.54;101859.66;4965921;28;1179;-58
2023/12/19 06:00:23;;;;;;;;;;;;;;;16.20;43.67;101869.72;4958622;28;1057;-58
2023/12/19 06:02:49;;;;;;;;;;;;;;;16.67;43.18;101873.38;4963842;28;1070;-56
2023/12/19 06:05:14;;;;;;;;;;;;;;;17.53;40.92;101871.25;4972306;28;942;-53
2023/12/19 06:07:42;;;;;;;;;;;;;;;16.59;42.89;101867.63;4963119;28;1973;-57
2023/12/19 06:10:11;;;;;;;;;;;;;;;16.13;43.88;101851.44;4978064;28;1135;-54
2023/12/19 06:12:37;;;;;;;;;;;;;;;16.70;43.16;101843.13;4963503;28;1037;-57
2023/12/19 06:15:02;;;;;;;;;;;;;;;17.63;40.70;101837.81;4966124;28;1185;-60
2023/12/19 06:17:28;;;;;;;;;;;;;;;16.63;42.58;101853.25;4963590;28;1042;-60
2023/12/19 06:19:53;;;;;;;;;;;;;;;16.18;43.47;101864.50;4965643;28;2588;-60
2023/12/19 06:22:19;;;;;;;;;;;;;;;17.49;41.12;101853.75;4977033;28;1111;-58
2023/12/19 06:24:45;;;;;;;;;;;;;;;16.93;41.95;101848.94;4977716;28;1057;-57
2023/12/19 06:27:15;;;;;;;;;;;;;;;16.29;43.56;101847.97;4964852;28;1980;-54
2023/12/19 06:29:40;;;;;;;;;;;;;;;17.13;41.87;101859.31;4974313;28;1057;-58
2023/12/19 06:32:09;;;;;;;;;;;;;;;17.27;41.20;101868.28;4976911;28;1211;-59
2023/12/19 06:34:35;;;;;;;;;;;;;;;16.52;42.72;101856.47;4977147;28;1064;-58
2023/12/19 06:37:00;;;;;;;;;;;;;;;16.07;43.81;101858.88;4962844;28;1191;-56
2023/12/19 06:39:26;;;;;;;;;;;;;;;17.24;41.57;101864.03;4966565;28;1195;-60
2023/12/19 06:41:53;;;;;;;;;;;;;;;17.02;41.67;101861.69;4971298;28;1101;-55
2023/12/19 06:44:18;;;;;;;;;;;;;;;16.42;43.19;101861.44;4959001;28;1096;-58
2023/12/19 06:46:46;;;;;;;;;;;;;;;16.66;43.04;101850.41;4970677;28;1906;-58
2023/12/19 06:49:16;;;;;;;;;;;;;;;17.71;40.41;101856.00;4969877;28;1148;-60
2023/12/19 06:51:41;;;;;;;;;;;;;;;16.65;42.46;101864.63;4964581;28;1934;-57
2023/12/19 06:54:07;;;;;;;;;;;;;;;16.25;43.68;101873.84;4972105;28;1044;-57
2023/12/19 06:56:32;;;;;;;;;;;;;;;16.46;43.47;101872.75;4957847;29;1097;-56
2023/12/19 06:58:58;;;;;;;;;;;;;;;17.82;40.33;101873.97;4957623;28;1128;-57
2023/12/19 07:01:23;;;;;;;;;;;;;;;16.95;41.99;101868.34;4957941;28;1120;-56
2023/12/19 07:03:49;;;;;;;;;;;;;;;16.38;43.17;101873.19;4970114;28;1026;-62
2023/12/19 07:06:15;;;;;;;;;;;;;;;16.01;44.18;101874.22;4976288;28;1902;-59
2023/12/19 07:08:40;;;;;;;;;;;;;;;17.16;41.87;101879.56;4976831;28;1103;-58
2023/12/19 07:11:06;;;;;;;;;;;;;;;17.30;41.17;101876.09;4957614;28;1174;-59
2023/12/19 07:13:32;;;;;;;;;;;;;;;16.50;42.97;101882.25;4972970;28;1510;-57
2023/12/19 07:15:58;;;;;;;;;;;;;;;16.28;43.70;101872.84;4972683;28;1572;-61
2023/12/19 07:18:23;;;;;;;;;;;;;;;17.72;40.72;101876.31;4969903;28;1072;-61
2023/12/19 07:20:49;;;;;;;;;;;;;;;16.96;41.83;101878.88;4964426;28;2424;-61
2023/12/19 07:23:15;;;;;;;;;;;;;;;16.36;43.24;101880.38;4976668;28;1036;-62
2023/12/19 07:25:41;;;;;;;;;;;;;;;16.52;43.14;101881.25;4975101;28;1975;-61
2023/12/19 07:28:06;;;;;;;;;;;;;;;17.77;40.43;101880.53;4956576;28;966;-61
2023/12/19 07:30:32;;;;;;;;;;;;;;;16.82;42.22;101884.94;4963709;28;1104;-59
2023/12/19 07:32:59;;;;;;;;;;;;;;;16.31;43.35;101880.63;4963573;28;1032;-61
2023/12/19 07:35:24;;;;;;;;;;;;;;;16.70;42.74;101883.84;4963768;28;1130;-60
2023/12/19 07:37:50;;;;;;;;;;;;;;;17.86;40.40;101883.50;4958179;28;1339;-61
2023/12/19 07:40:15;;;;;;;;;;;;;;;16.89;42.22;101883.69;4960104;28;1233;-60
2023/12/19 07:42:42;;;;;;;;;;;;;;;16.38;43.53;101883.81;4968084;28;1141;-59
2023/12/19 07:45:07;;;;;;;;;;;;;;;16.54;43.28;101881.16;4958130;28;1053;-56
2023/12/19 07:47:33;;;;;;;;;;;;;;;17.70;40.45;101875.53;4968062;28;1985;-59
2023/12/19 07:49:58;;;;;;;;;;;;;;;16.73;42.61;101870.38;4968729;28;2525;-60
2023/12/19 07:52:24;;;;;;;;;;;;;;;16.28;43.66;101867.53;4976695;28;1488;-59
2023/12/19 07:54:49;;;;;;;;;;;;;;;16.45;43.45;101876.38;4960996;28;1213;-60
2023/12/19 07:57:15;;;;;;;;;;;;;;;17.78;40.52;101874.25;4956934;28;1073;-55
2023/12/19 07:59:41;;;;;;;;;;;;;;;16.84;42.43;101882.22;4975136;28;1137;-60
2023/12/19 08:02:07;;;;;;;;;;;;;;;16.35;43.52;101879.50;4979961;28;985;-57
2023/12/19 08:04:33;;;;;;;;;;;;;;;16.75;42.87;101872.94;4967313;28;1060;-59
2023/12/19 08:06:59;;;;;;;;;;;;;;;17.56;40.78;101875.53;4971746;28;1982;-58
2023/12/19 08:09:26;;;;;;;;;;;;;;;16.65;42.58;101883.22;4973135;28;1136;-62
2023/12/19 08:11:52;;;;;;;;;;;;;;;16.25;43.52;101871.19;4969313;28;1049;-60
2023/12/19 08:14:17;;;;;;;;;;;;;;;16.67;42.93;101869.84;4964790;28;1135;-57
2023/12/19 08:16:43;;;;;;;;;;;;;;;17.79;40.41;101867.97;4969575;28;1018;-59
2023/12/19 08:19:08;;;;;;;;;;;;;;;16.82;42.40;101858.38;4963126;28;1131;-59
2023/12/19 08:21:34;;;;;;;;;;;;;;;16.33;43.45;101849.50;4960399;28;2125;-62
2023/12/19 08:24:00;;;;;;;;;;;;;;;16.84;42.82;101860.94;4960499;28;1105;-61
2023/12/19 08:26:25;;;;;;;;;;;;;;;17.56;40.47;101849.78;4960282;28;1910;-55
2023/12/19 08:28:51;;;;;;;;;;;;;;;16.72;42.60;101846.53;4961437;28;1388;-58
2023/12/19 08:31:16;;;;;;;;;;;;;;;16.33;43.59;101852.16;4953786;28;1524;-58
2023/12/19 08:33:44;;;;;;;;;;;;;;;17.64;41.02;101844.00;4957154;29;1205;-59
2023/12/19 08:36:10;;;;;;;;;;;;;;;16.98;42.11;101846.88;4960519;28;1292;-56
2023/12/19 08:38:35;;;;;;;;;;;;;;;16.46;43.57;101848.84;4977102;28;1212;-58
2023/12/19 08:41:01;;;;;;;;;;;;;;;16.26;43.89;101838.41;4979202;28;1529;-63
2023/12/19 08:43:27;;;;;;;;;;;;;;;17.74;40.81;101836.31;4973454;28;1174;-58
2023/12/19 08:45:53;;;;;;;;;;;;;;;17.01;41.94;101836.94;4965930;28;1898;-61
2023/12/19 08:48:19;;;;;;;;;;;;;;;16.42;43.23;101826.91;4968397;28;880;-59
2023/12/19 08:50:45;;;;;;;;;;;;;;;16.10;43.99;101822.41;4967894;28;2473;-60
2023/12/19 08:53:12;;;;;;;;;;;;;;;17.48;41.41;101820.94;4979111;28;1131;-61
2023/12/19 08:55:38;;;;;;;;;;;;;;;17.00;41.98;101811.28;4969241;28;1135;-58
2023/12/19 08:58:04;;;;;;;;;;;;;;;16.44;43.54;101808.25;4969109;28;1240;-59
2023/12/19 09:00:29;;;;;;;;;;;;;;;16.12;44.13;101796.66;4976255;28;1080;-60
2023/12/19 09:02:55;;;;;;;;;;;;;;;16.97;42.60;101795.53;4959845;28;1069;-62
2023/12/19 09:05:21;;;;;;;;;;;;;;;17.36;41.17;101790.66;4962641;28;1232;-58
2023/12/19 09:07:46;;;;;;;;;;;;;;;16.51;43.14;101797.22;4966369;28;1910;-60
2023/12/19 09:10:12;;;;;;;;;;;;;;;16.14;44.23;101780.66;4959422;28;1369;-57
2023/12/19 09:12:38;;;;;;;;;;;;;;;17.02;42.40;101781.94;4969931;28;1006;-60
2023/12/19 09:15:05;;;;;;;;;;;;;;;17.22;41.57;101778.16;4976154;28;997;-57
2023/12/19 09:17:31;;;;;;;;;;;;;;;16.48;43.23;101773.44;4960016;28;1053;-59
2023/12/19 09:19:56;;;;;;;;;;;;;;;16.11;44.42;101770.19;4970453;28;1994;-59
2023/12/19 09:22:22;;;;;;;;;;;;;;;17.09;42.49;101764.75;4968804;28;1053;-58
2023/12/19 09:24:47;;;;;;;;;;;;;;;17.36;41.35;101750.75;4962733;28;996;-53
2023/12/19 09:27:13;;;;;;;;;;;;;;;16.52;43.28;101758.19;4967897;28;1970;-56
2023/12/19 09:29:39;;;;;;;;;;;;;;;16.13;44.07;101755.88;4978822;28;1119;-53
2023/12/19 09:32:07;;;;;;;;;;;;;;;16.81;42.91;101755.69;4975849;28;988;-55
2023/12/19 09:34:32;;;;;;;;;;;;;;;17.47;41.21;101752.75;4963029;28;1172;-55
2023/12/19 09:36:58;;;;;;;;;;;;;;;16.57;43.02;101749.97;4963362;28;1161;-58
2023/12/19 09:39:23;;;;;;;;;;;;;;;16.19;43.88;101738.78;4967723;28;1176;-54
2023/12/19 09:41:49;;;;;;;;;;;;;;;16.90;42.64;101738.34;4956640;28;1482;-60
2023/12/19 09:44:14;;;;;;;;;;;;;;;17.36;41.44;101732.13;4976708;28;917;-59
2023/12/19 09:46:41;;;;;;;;;;;;;;;16.54;43.37;101732.41;4977660;28;1969;-56
2023/12/19 09:49:09;;;;;;;;;;;;;;;16.18;44.07;101730.91;4978321;28;1080;-57
2023/12/19 09:51:34;;;;;;;;;;;;;;;16.83;42.82;101726.38;4965355;28;2477;-56
2023/12/19 09:54:00;;;;;;;;;;;;;;;17.58;41.01;101716.66;4966665;28;1097;-59
2023/12/19 09:56:26;;;;;;;;;;;;;;;16.71;42.91;101710.19;4967210;28;1053;-57
2023/12/19 09:58:51;;;;;;;;;;;;;;;16.19;43.71;101709.56;4978065;28;1107;-57
2023/12/19 10:01:19;;;;;;;;;;;;;;;16.23;43.98;101710.25;4960659;28;1088;-58
2023/12/19 10:03:45;;;;;;;;;;;;;;;17.56;41.62;101699.94;4969468;28;1057;-58
2023/12/19 10:06:10;;;;;;;;;;;;;;;16.69;42.84;101698.81;4965078;28;1899;-58
2023/12/19 10:08:42;;;;;;;;;;;;;;;16.25;43.70;101697.72;4965356;28;866;-59
2023/12/19 10:11:08;;;;;;;;;;;;;;;15.97;44.35;101694.81;4975528;28;1130;-59
2023/12/19 10:13:35;;;;;;;;;;;;;;;17.41;41.63;101691.09;4977806;28;1025;-59
2023/12/19 10:16:04;;;;;;;;;;;;;;;17.00;42.25;101686.34;4958678;28;1256;-59
2023/12/19 10:18:30;;;;;;;;;;;;;;;16.40;43.53;101691.56;4965439;28;1085;-60
2023/12/19 10:21:08;;;;;;;;;;;;;;;16.47;43.56;101675.28;4966427;28;1844;-59
2023/12/19 10:23:43;;;;;;;;;;;;;;;17.74;40.82;101673.97;4966150;28;1077;-59
2023/12/19 10:26:09;;;;;;;;;;;;;;;16.71;42.94;101672.13;4968275;28;1969;-58
2023/12/19 10:28:34;;;;;;;;;;;;;;;16.23;43.88;101663.31;4963199;28;1228;-60
2023/12/19 10:31:06;;;;;;;;;;;;;;;16.19;44.49;101669.75;4966660;28;1085;-60
2023/12/19 10:33:49;;;;;;;;;;;;;;;17.67;41.08;101664.66;4973349;28;875;-60
2023/12/19 10:36:24;;;;;;;;;;;;;;;16.76;42.84;101656.78;4977258;28;1044;-59
2023/12/19 10:38:50;;;;;;;;;;;;;;;16.25;44.11;101649.94;4958323;28;1188;-59
2023/12/19 10:41:19;;;;;;;;;;;;;;;16.34;43.93;101652.09;4967085;28;1146;-62
2023/12/19 10:43:44;;;;;;;;;;;;;;;17.70;40.99;101645.84;4956750;28;1149;-61
2023/12/19 10:46:11;;;;;;;;;;;;;;;16.77;42.73;101642.53;4976453;28;1906;-60
2023/12/19 10:48:36;;;;;;;;;;;;;;;16.23;43.92;101634.09;4977421;28;1044;-60
2023/12/19 10:51:01;;;;;;;;;;;;;;;16.37;44.05;101625.34;4967213;28;2436;-59
2023/12/19 10:53:27;;;;;;;;;;;;;;;17.56;41.05;101625.44;4960035;28;1030;-61
2023/12/19 10:55:52;;;;;;;;;;;;;;;16.69;42.89;101619.09;4968088;28;1104;-60
2023/12/19 10:58:18;;;;;;;;;;;;;;;16.29;43.90;101622.28;4967513;28;1078;-62
2023/12/19 11:00:44;;;;;;;;;;;;;;;16.87;42.86;101616.28;4975154;28;1100;-61
2023/12/19 11:03:12;;;;;;;;;;;;;;;17.43;41.42;101607.59;4966273;28;1030;-62
2023/12/19 11:05:41;;;;;;;;;;;;;;;16.61;43.29;101603.63;4963083;28;1985;-59
2023/12/19 11:08:17;;;;;;;;;;;;;;;16.18;44.14;101604.34;4970475;28;1123;-60
2023/12/19 11:10:53;;;;;;;;;;;;;;;16.00;44.77;101604.44;4948486;28;1151;-59
2023/12/19 11:13:19;;;;;;;;;;;;;;;17.54;41.79;101609.56;4954586;29;1130;-62
2023/12/19 11:15:47;;;;;;;;;;;;;;;16.91;42.49;101603.66;4957931;28;1386;-62
2023/12/19 11:18:19;;;;;;;;;;;;;;;16.34;43.68;101600.78;4955935;29;1069;-61
2023/12/19 11:20:53;;;;;;;;;;;;;;;16.64;43.47;101600.78;4957367;28;2367;-62
2023/12/19 11:23:24;;;;;;;;;;;;;;;17.45;41.67;101594.19;4970005;28;1025;-60
2023/12/19 11:26:00;;;;;;;;;;;;;;;16.57;43.56;101595.91;4945702;29;1997;-60
2023/12/19 11:28:26;;;;;;;;;;;;;;;16.21;44.27;101590.88;4953222;29;1273;-61
2023/12/19 11:30:51;;;;;;;;;;;;;;;16.12;44.81;101586.94;4957294;28;1339;-60
2023/12/19 11:33:26;;;;;;;;;;;;;;;17.53;41.68;101580.41;4968932;28;1409;-57
2023/12/19 11:35:52;;;;;;;;;;;;;;;16.97;42.59;101585.53;4961035;28;1291;-56
2023/12/19 11:38:21;;;;;;;;;;;;;;;16.36;43.83;101578.50;4963246;28;1183;-57
2023/12/19 11:40:48;;;;;;;;;;;;;;;16.13;44.69;101574.56;4967536;28;1189;-57
2023/12/19 11:43:28;;;;;;;;;;;;;;;17.52;41.76;101579.53;4961513;28;1288;-57
2023/12/19 11:45:57;;;;;;;;;;;;;;;16.87;42.99;101571.09;4962011;28;1988;-57
2023/12/19 11:48:37;;;;;;;;;;;;;;;16.33;44.23;101565.41;4978699;28;1111;-52
2023/12/19 11:51:04;;;;;;;;;;;;;;;16.05;44.67;101560.88;4980503;28;2246;-49
2023/12/19 11:53:29;;;;;;;;;;;;;;;16.99;42.79;101557.06;4960769;28;1172;-60
2023/12/19 11:56:08;;;;;;;;;;;;;;;17.45;41.67;101560.44;4972488;28;924;-54
2023/12/19 11:58:51;;;;;;;;;;;;;;;16.48;43.64;101555.66;4953826;28;1114;-58
2023/12/19 12:01:19;;;;;;;;;;;;;;;16.18;44.63;101556.56;4966328;28;1104;-59
2023/12/19 12:03:44;;;;;;;;;;;;;;;16.75;43.36;101549.63;4967277;28;1137;-61
2023/12/19 12:06:10;;;;;;;;;;;;;;;17.47;41.54;101550.56;4973187;28;1914;-61
2023/12/19 12:08:35;;;;;;;;;;;;;;;16.61;43.45;101552.28;4968701;28;1148;-61
2023/12/19 12:11:04;;;;;;;;;;;;;;;16.23;44.66;101541.19;4979756;28;1001;-60
2023/12/19 12:13:31;;;;;;;;;;;;;;;16.62;43.72;101551.31;4967107;28;1152;-59
2023/12/19 12:15:57;;;;;;;;;;;;;;;17.48;41.64;101546.13;4979482;28;1111;-55
2023/12/19 12:18:23;;;;;;;;;;;;;;;16.62;43.41;101546.00;4965753;28;1118;-58
2023/12/19 12:20:48;;;;;;;;;;;;;;;16.23;44.43;101549.16;4972213;28;2709;-59
2023/12/19 12:23:18;;;;;;;;;;;;;;;16.58;43.86;101541.84;4966475;28;1157;-60
2023/12/19 12:25:44;;;;;;;;;;;;;;;17.59;41.60;101546.28;4967907;28;1979;-63
2023/12/19 12:28:10;;;;;;;;;;;;;;;16.63;43.54;101545.91;4966844;28;1124;-60
2023/12/19 12:30:35;;;;;;;;;;;;;;;16.20;44.37;101543.19;4972188;28;1070;-59
2023/12/19 12:33:04;;;;;;;;;;;;;;;16.57;43.92;101545.44;4965305;28;1043;-59
2023/12/19 12:35:32;;;;;;;;;;;;;;;17.67;41.40;101543.09;4968376;28;1061;-60
2023/12/19 12:37:59;;;;;;;;;;;;;;;16.67;43.64;101543.94;4967220;28;973;-59
2023/12/19 12:40:26;;;;;;;;;;;;;;;16.28;44.39;101535.63;4972762;28;1160;-60
2023/12/19 12:42:51;;;;;;;;;;;;;;;16.17;44.83;101538.91;4972671;28;1073;-60